Time;durP1;ratioP1;P1;durP2;ratioP2;P2;SDS_P1;SDS_P2;PMS_P1;PMS_P2;Temp;Humidity;BMP_temperature;BMP_pressure;BME280_temperature;BME280_humidity;BME280_pressure;Samples;Min_cycle;Max_cycle;Signal;HPM_P1;HPM_P2
2022/03/01 00:01:46;;;;;;;16.73;11.85;;;-0.80;99.90;;;;;;5071230;28;20428;-82
2022/03/01 00:04:12;;;;;;;17.33;11.95;;;-0.80;99.90;;;;;;5071033;28;20450;-84
2022/03/01 00:06:38;;;;;;;16.85;11.52;;;-0.70;99.90;;;;;;5088887;28;20387;-82
2022/03/01 00:09:03;;;;;;;15.73;11.50;;;-0.70;99.90;;;;;;5088936;28;20468;-82
2022/03/01 00:11:31;;;;;;;15.43;11.57;;;-0.70;99.90;;;;;;5089019;28;20387;-85
2022/03/01 00:13:56;;;;;;;15.43;11.52;;;-0.80;99.90;;;;;;5070860;28;20411;-82
2022/03/01 00:16:22;;;;;;;14.70;10.47;;;-0.80;99.90;;;;;;5071992;28;20392;-84
2022/03/01 00:18:48;;;;;;;14.07;11.02;;;-0.80;99.90;;;;;;5070708;28;20482;-82
2022/03/01 00:21:14;;;;;;;13.17;10.53;;;-0.80;99.90;;;;;;5071635;28;20431;-81
2022/03/01 00:23:39;;;;;;;13.68;10.48;;;-0.70;99.90;;;;;;5071374;28;20917;-83
2022/03/01 00:26:05;;;;;;;14.07;10.95;;;-0.80;99.90;;;;;;5088992;28;20368;-85
2022/03/01 00:28:31;;;;;;;14.25;10.15;;;-0.80;99.90;;;;;;5070803;28;20368;-82
2022/03/01 00:30:56;;;;;;;12.57;9.98;;;-0.70;99.90;;;;;;5070486;28;20893;-84
2022/03/01 00:33:22;;;;;;;13.02;10.70;;;-0.70;99.90;;;;;;5088682;28;20411;-82
2022/03/01 00:35:48;;;;;;;12.90;10.25;;;-0.70;99.90;;;;;;5058486;28;20393;-83
2022/03/01 00:38:14;;;;;;;12.93;10.70;;;-0.80;99.90;;;;;;5057986;28;20406;-82
2022/03/01 00:40:39;;;;;;;13.68;11.18;;;-0.80;99.90;;;;;;5063634;28;20397;-82
2022/03/01 00:43:05;;;;;;;14.20;11.10;;;-0.90;99.90;;;;;;5080402;28;20398;-83
2022/03/01 00:45:30;;;;;;;13.63;10.97;;;-0.90;99.90;;;;;;5064513;28;20372;-83
2022/03/01 00:47:56;;;;;;;16.33;11.07;;;-0.90;99.90;;;;;;5084796;28;20371;-85
2022/03/01 00:50:22;;;;;;;14.07;10.57;;;-0.90;99.90;;;;;;5073888;28;20396;-83
2022/03/01 00:52:47;;;;;;;13.77;10.57;;;-1.00;99.90;;;;;;5074000;28;20966;-81
2022/03/01 00:55:14;;;;;;;15.17;11.37;;;-1.00;99.90;;;;;;5077979;28;20801;-82
2022/03/01 00:57:40;;;;;;;14.25;11.18;;;-1.10;99.90;;;;;;5073115;28;20402;-84
2022/03/01 01:00:07;;;;;;;15.43;12.07;;;-1.10;99.90;;;;;;5053959;28;20382;-83
2022/03/01 01:02:32;;;;;;;14.03;11.07;;;-0.90;99.90;;;;;;5037981;28;20436;-85
2022/03/01 01:04:58;;;;;;;14.57;11.43;;;-1.10;99.90;;;;;;5054399;28;20872;-84
2022/03/01 01:07:25;;;;;;;13.50;11.27;;;-1.10;99.90;;;;;;5053875;28;20378;-83
2022/03/01 01:09:51;;;;;;;13.52;11.32;;;-1.20;99.90;;;;;;5053731;28;20415;-85
2022/03/01 01:12:17;;;;;;;12.85;11.10;;;-1.20;99.90;;;;;;5071967;28;20366;-83
2022/03/01 01:14:44;;;;;;;14.55;11.65;;;-1.20;99.90;;;;;;5053871;28;20452;-85
2022/03/01 01:17:09;;;;;;;15.38;11.70;;;-1.20;99.90;;;;;;5071914;28;20397;-83
2022/03/01 01:19:35;;;;;;;13.45;11.50;;;-1.20;99.90;;;;;;5053711;28;20433;-82
2022/03/01 01:24:45;;;;;;;14.27;11.65;;;-1.30;99.90;;;;;;5071786;28;20397;-84
2022/03/01 01:27:11;;;;;;;14.48;11.15;;;-1.30;99.90;;;;;;5072215;28;20379;-85
2022/03/01 01:29:37;;;;;;;13.13;11.27;;;-1.40;99.90;;;;;;5054562;28;20379;-84
2022/03/01 01:32:03;;;;;;;15.55;12.18;;;-1.40;99.90;;;;;;5055182;28;20548;-83
2022/03/01 01:34:29;;;;;;;15.75;11.48;;;-1.30;99.90;;;;;;5054011;28;20394;-84
2022/03/01 01:36:55;;;;;;;16.77;12.80;;;-1.40;99.90;;;;;;5055299;28;20860;-83
2022/03/01 01:39:21;;;;;;;14.50;11.47;;;-1.40;99.90;;;;;;5073303;28;20385;-84
2022/03/01 01:41:46;;;;;;;16.13;11.80;;;-1.40;99.90;;;;;;5072368;28;20382;-83
2022/03/01 01:44:13;;;;;;;14.93;12.23;;;-1.40;99.90;;;;;;5054426;28;20377;-84
2022/03/01 01:46:39;;;;;;;15.70;12.10;;;-1.50;99.90;;;;;;5071083;28;20740;-82
2022/03/01 01:49:04;;;;;;;15.33;11.63;;;-1.50;99.90;;;;;;5072175;28;20424;-83
2022/03/01 01:51:30;;;;;;;13.80;11.87;;;-1.50;99.90;;;;;;5054360;28;20393;-84
2022/03/01 02:07:28;;;;;;;14.95;12.05;;;-1.60;99.90;;;;;;5078765;28;20456;-82
2022/03/01 02:09:54;;;;;;;14.00;12.07;;;-1.70;99.90;;;;;;5059044;28;20386;-84
2022/03/01 02:12:20;;;;;;;16.30;12.05;;;-1.60;99.90;;;;;;5071500;28;20378;-82
2022/03/01 02:14:45;;;;;;;15.33;12.07;;;-1.60;99.90;;;;;;5071691;28;20401;-82
2022/03/01 02:17:11;;;;;;;15.05;12.65;;;-1.70;99.90;;;;;;5053211;28;20378;-83
2022/03/01 02:19:38;;;;;;;17.52;12.70;;;-1.60;99.90;;;;;;5071173;28;20728;-83
2022/03/01 02:22:06;;;;;;;16.08;12.60;;;-1.70;99.90;;;;;;5053430;28;20907;-84
2022/03/01 02:24:32;;;;;;;14.48;12.30;;;-1.70;99.90;;;;;;5052982;28;20417;-82
2022/03/01 02:27:01;;;;;;;16.33;12.57;;;-1.70;99.90;;;;;;5053543;28;20386;-83
2022/03/01 02:29:27;;;;;;;17.13;12.70;;;-1.80;99.90;;;;;;5054654;28;20394;-84
2022/03/01 02:31:55;;;;;;;18.95;13.80;;;-1.80;99.90;;;;;;5072534;28;20378;-84
2022/03/01 02:34:21;;;;;;;20.10;14.18;;;-1.70;99.90;;;;;;5054304;28;20524;-84
2022/03/01 02:36:47;;;;;;;19.15;14.50;;;-1.80;99.90;;;;;;5070431;28;20956;-83
2022/03/01 02:39:14;;;;;;;21.08;16.08;;;-1.80;99.90;;;;;;5053164;28;20374;-85
2022/03/01 02:41:41;;;;;;;23.27;16.85;;;-1.80;99.90;;;;;;5070894;28;20393;-82
2022/03/01 02:44:08;;;;;;;21.17;15.85;;;-1.80;99.90;;;;;;5053582;28;20378;-85
2022/03/01 02:46:34;;;;;;;19.00;14.80;;;-1.80;99.90;;;;;;5053150;28;20917;-84
2022/03/01 02:49:00;;;;;;;23.70;15.73;;;-1.90;99.90;;;;;;5071385;28;20449;-84
2022/03/01 02:51:26;;;;;;;34.40;19.38;;;-1.90;99.90;;;;;;5053221;28;20473;-83
2022/03/01 02:53:52;;;;;;;25.88;16.73;;;-2.00;99.90;;;;;;5053631;28;20806;-83
2022/03/01 02:56:19;;;;;;;31.65;17.77;;;-2.00;99.90;;;;;;5071965;28;20377;-83
2022/03/01 02:58:45;;;;;;;31.48;18.40;;;-1.90;99.90;;;;;;5052736;28;20453;-83
2022/03/01 03:01:10;;;;;;;30.97;19.30;;;-1.90;99.90;;;;;;5053579;28;20462;-82
2022/03/01 03:03:36;;;;;;;25.90;17.17;;;-2.00;99.90;;;;;;5071469;28;20401;-83
2022/03/01 03:06:02;;;;;;;26.83;17.03;;;-2.00;99.90;;;;;;5070828;28;20821;-84
2022/03/01 03:08:28;;;;;;;31.60;19.13;;;-2.00;99.90;;;;;;5072345;28;20374;-84
2022/03/01 03:10:54;;;;;;;37.10;21.10;;;-2.00;99.90;;;;;;5072476;28;20726;-83
2022/03/01 03:13:20;;;;;;;32.70;19.70;;;-2.10;99.90;;;;;;5052370;28;20381;-84
2022/03/01 03:15:47;;;;;;;25.48;17.00;;;-2.10;99.90;;;;;;5054298;28;20413;-83
2022/03/01 03:18:14;;;;;;;27.38;17.10;;;-2.10;99.90;;;;;;5054019;28;20516;-84
2022/03/01 03:20:40;;;;;;;27.63;17.77;;;-2.10;99.90;;;;;;5052598;28;21524;-83
2022/03/01 03:23:06;;;;;;;25.70;17.00;;;-2.00;99.90;;;;;;5071054;28;20402;-84
2022/03/01 03:25:32;;;;;;;25.70;16.80;;;-2.00;99.90;;;;;;5054802;28;20408;-82
2022/03/01 03:27:59;;;;;;;29.48;17.45;;;-2.00;99.90;;;;;;5071658;28;20892;-83
2022/03/01 03:30:25;;;;;;;29.67;18.95;;;-2.00;99.90;;;;;;5055266;28;20378;-83
2022/03/01 03:32:50;;;;;;;28.23;18.55;;;-2.00;99.90;;;;;;5055584;28;20413;-82
2022/03/01 03:35:16;;;;;;;24.70;16.92;;;-2.00;99.90;;;;;;5071575;28;20416;-82
2022/03/01 03:37:42;;;;;;;24.35;16.33;;;-2.00;99.90;;;;;;5071747;28;20372;-83
2022/03/01 03:40:08;;;;;;;22.48;15.55;;;-2.00;99.90;;;;;;5070438;28;20386;-82
2022/03/01 03:42:34;;;;;;;23.70;15.98;;;-2.00;99.90;;;;;;5071242;28;20406;-81
2022/03/01 03:44:59;;;;;;;25.43;15.83;;;-2.00;99.90;;;;;;5053080;28;20386;-82
2022/03/01 03:47:25;;;;;;;23.30;16.00;;;-2.00;99.90;;;;;;5070432;28;20382;-82
2022/03/01 03:49:51;;;;;;;23.97;17.17;;;-1.90;99.90;;;;;;5053488;28;20378;-84
2022/03/01 03:52:16;;;;;;;27.13;17.37;;;-1.90;99.90;;;;;;5069752;28;20883;-84
2022/03/01 03:54:42;;;;;;;22.80;16.20;;;-1.90;99.90;;;;;;5052051;28;20449;-83
2022/03/01 03:57:08;;;;;;;26.30;17.80;;;-2.00;99.90;;;;;;5071040;28;20376;-84
2022/03/01 03:59:38;;;;;;;22.30;15.93;;;-2.00;99.90;;;;;;5070621;28;20390;-83
2022/03/01 04:02:05;;;;;;;20.83;15.63;;;-2.10;99.90;;;;;;5051160;28;20432;-81
2022/03/01 04:04:31;;;;;;;23.95;16.40;;;-2.00;99.90;;;;;;5051147;28;20386;-84
2022/03/01 04:06:57;;;;;;;25.13;16.88;;;-2.00;99.90;;;;;;5069405;28;20401;-83
2022/03/01 04:09:23;;;;;;;26.55;17.20;;;-1.90;99.90;;;;;;5051845;28;20496;-84
2022/03/01 04:11:49;;;;;;;25.55;16.30;;;-2.00;99.90;;;;;;5073112;28;20418;-84
2022/03/01 04:14:14;;;;;;;23.33;15.52;;;-2.00;99.90;;;;;;5055414;28;20420;-83
2022/03/01 04:16:42;;;;;;;21.20;15.30;;;-2.00;99.90;;;;;;5073934;28;20378;-82
2022/03/01 04:19:09;;;;;;;20.90;15.68;;;-2.00;99.90;;;;;;5073595;28;20450;-83
2022/03/01 04:21:34;;;;;;;19.60;15.02;;;-2.00;99.90;;;;;;5072972;28;20401;-84
2022/03/01 04:24:00;;;;;;;19.70;15.23;;;-2.00;99.90;;;;;;5054903;28;20386;-82
2022/03/01 04:26:26;;;;;;;22.50;15.65;;;-2.10;99.90;;;;;;5074641;28;20404;-82
2022/03/01 04:28:51;;;;;;;20.30;15.60;;;-2.10;99.90;;;;;;5055276;28;20386;-83
2022/03/01 04:31:17;;;;;;;20.88;15.27;;;-2.10;99.90;;;;;;5055100;28;20369;-82
2022/03/01 04:33:42;;;;;;;25.08;16.55;;;-2.20;99.90;;;;;;5072919;28;20381;-83
2022/03/01 04:36:08;;;;;;;26.37;17.07;;;-2.20;99.90;;;;;;5073425;28;20401;-83
2022/03/01 04:38:35;;;;;;;25.05;17.08;;;-2.20;99.90;;;;;;5073571;28;20373;-84
2022/03/01 04:41:00;;;;;;;22.35;15.23;;;-2.20;99.90;;;;;;5072774;28;20736;-82
2022/03/01 04:43:26;;;;;;;20.40;15.20;;;-2.30;99.90;;;;;;5054793;28;20393;-82
2022/03/01 04:45:52;;;;;;;25.50;17.33;;;-2.30;99.90;;;;;;5054877;28;20386;-83
2022/03/01 04:48:18;;;;;;;21.03;15.43;;;-2.30;99.90;;;;;;5072603;28;20370;-83
2022/03/01 04:50:44;;;;;;;20.23;14.57;;;-2.30;99.90;;;;;;5054537;28;20891;-82
2022/03/01 04:53:10;;;;;;;21.05;15.65;;;-2.30;99.90;;;;;;5074447;28;20382;-84
2022/03/01 04:55:37;;;;;;;19.48;15.13;;;-2.30;99.90;;;;;;5055300;28;20393;-82
2022/03/01 04:58:16;;;;;;;18.90;14.48;;;-2.40;99.90;;;;;;5072945;28;20444;-84
2022/03/01 05:00:42;;;;;;;17.05;13.82;;;-2.40;99.90;;;;;;5059247;28;20443;-85
2022/03/01 05:03:08;;;;;;;17.30;13.23;;;-2.40;99.90;;;;;;5056414;28;20896;-83
2022/03/01 05:05:34;;;;;;;17.92;13.70;;;-2.40;99.90;;;;;;5058611;28;20386;-83
2022/03/01 05:08:00;;;;;;;18.80;13.87;;;-2.50;99.90;;;;;;5079116;28;20397;-81
2022/03/01 05:10:26;;;;;;;17.02;14.30;;;-2.50;99.90;;;;;;5061958;28;20434;-83
2022/03/01 05:12:55;;;;;;;18.73;15.43;;;-2.50;99.90;;;;;;5064759;28;20382;-82
2022/03/01 05:15:23;;;;;;;18.15;13.77;;;-2.50;99.90;;;;;;5060862;28;20383;-84
2022/03/01 05:17:49;;;;;;;21.15;14.23;;;-2.50;99.90;;;;;;5074745;28;20378;-84
2022/03/01 05:20:16;;;;;;;19.65;14.13;;;-2.60;99.90;;;;;;5073080;28;20445;-83
2022/03/01 05:22:42;;;;;;;18.00;14.00;;;-2.60;99.90;;;;;;5053660;28;20417;-83
2022/03/01 05:25:10;;;;;;;17.77;14.57;;;-2.60;99.90;;;;;;5056112;28;20381;-84
2022/03/01 05:27:40;;;;;;;17.58;14.38;;;-2.70;99.90;;;;;;5037661;28;20382;-83
2022/03/01 05:30:07;;;;;;;17.30;13.83;;;-2.70;99.90;;;;;;5071787;28;20460;-85
2022/03/01 05:32:34;;;;;;;17.27;14.10;;;-2.70;99.90;;;;;;5054182;28;20378;-84
2022/03/01 05:35:00;;;;;;;19.27;14.27;;;-2.70;99.90;;;;;;5073034;28;20374;-85
2022/03/01 05:37:25;;;;;;;20.80;15.33;;;-2.70;99.90;;;;;;5072194;28;20390;-83
2022/03/01 05:39:51;;;;;;;18.73;15.43;;;-2.70;99.90;;;;;;5053256;28;20402;-85
2022/03/01 05:42:18;;;;;;;16.47;13.67;;;-2.70;99.90;;;;;;5071997;28;20491;-82
2022/03/01 05:44:43;;;;;;;19.52;14.77;;;-2.70;99.90;;;;;;5054142;28;20390;-84
2022/03/01 05:47:09;;;;;;;19.03;14.23;;;-2.70;99.90;;;;;;5054458;28;20385;-84
2022/03/01 05:49:35;;;;;;;16.23;13.70;;;-2.70;99.90;;;;;;5072394;28;20491;-84
2022/03/01 05:52:01;;;;;;;17.20;13.90;;;-2.70;99.90;;;;;;5071145;28;20455;-82
2022/03/01 05:54:26;;;;;;;20.00;14.20;;;-2.70;99.90;;;;;;5053720;28;20388;-85
2022/03/01 05:56:52;;;;;;;18.52;14.25;;;-2.70;99.90;;;;;;5072380;28;20393;-85
2022/03/01 05:59:17;;;;;;;17.33;14.38;;;-2.70;99.90;;;;;;5068630;28;20377;-83
2022/03/01 06:01:43;;;;;;;19.10;14.18;;;-2.70;99.90;;;;;;5092699;28;20373;-83
2022/03/01 06:04:08;;;;;;;17.05;13.82;;;-2.70;99.90;;;;;;5074202;28;20734;-82
2022/03/01 06:06:34;;;;;;;17.50;13.63;;;-2.60;99.90;;;;;;5091593;28;20458;-82
2022/03/01 06:09:00;;;;;;;17.80;14.43;;;-2.60;99.90;;;;;;5074826;28;20498;-83
2022/03/01 06:11:25;;;;;;;17.37;14.20;;;-2.50;99.90;;;;;;5074683;28;20805;-82
2022/03/01 06:13:51;;;;;;;17.43;13.93;;;-2.50;99.90;;;;;;5072663;28;20385;-83
2022/03/01 06:16:17;;;;;;;18.47;14.73;;;-2.60;99.90;;;;;;5072959;28;20418;-82
2022/03/01 06:18:43;;;;;;;17.35;14.52;;;-2.50;99.90;;;;;;5073320;28;20387;-82
2022/03/01 06:21:09;;;;;;;21.75;13.75;;;-2.50;99.90;;;;;;5090730;28;20388;-83
2022/03/01 06:23:34;;;;;;;18.65;13.68;;;-2.50;99.90;;;;;;5090417;28;20410;-84
2022/03/01 06:26:00;;;;;;;17.65;13.95;;;-2.40;99.90;;;;;;5091284;28;20391;-82
2022/03/01 06:28:25;;;;;;;18.15;14.02;;;-2.40;99.90;;;;;;5090983;28;20477;-84
2022/03/01 06:30:51;;;;;;;22.07;13.63;;;-2.30;99.90;;;;;;5073083;28;20375;-82
2022/03/01 06:33:18;;;;;;;17.00;13.93;;;-2.30;99.90;;;;;;5090324;28;20369;-84
2022/03/01 06:35:44;;;;;;;17.88;13.73;;;-2.20;99.90;;;;;;5072850;28;20396;-83
2022/03/01 06:38:10;;;;;;;16.55;13.57;;;-2.10;99.90;;;;;;5091169;28;20393;-82
2022/03/01 06:40:36;;;;;;;17.60;14.00;;;-1.90;99.90;;;;;;5073380;28;20396;-82
2022/03/01 06:43:03;;;;;;;16.70;12.95;;;-1.80;99.90;;;;;;5089252;28;20392;-82
2022/03/01 06:45:29;;;;;;;15.75;13.30;;;-1.60;99.90;;;;;;5091474;28;20383;-82
2022/03/01 06:47:55;;;;;;;18.83;13.57;;;-1.40;99.90;;;;;;5073359;28;20469;-83
2022/03/01 06:50:21;;;;;;;25.13;13.57;;;-1.20;99.90;;;;;;5074532;28;20383;-83
2022/03/01 06:52:47;;;;;;;27.33;13.77;;;-1.10;99.90;;;;;;5091172;28;20450;-84
2022/03/01 06:55:13;;;;;;;16.80;12.95;;;-1.00;99.90;;;;;;5073913;28;20878;-84
2022/03/01 06:57:41;;;;;;;16.05;12.98;;;-0.80;99.90;;;;;;5091248;28;20372;-84
2022/03/01 07:00:08;;;;;;;16.85;12.48;;;-0.70;99.90;;;;;;5072434;28;20391;-84
2022/03/01 07:02:38;;;;;;;21.73;12.48;;;-0.60;99.90;;;;;;5076761;28;20948;-81
2022/03/01 07:05:06;;;;;;;26.88;12.98;;;-0.40;99.90;;;;;;5097364;28;20421;-82
2022/03/01 07:07:31;;;;;;;16.40;12.32;;;-0.30;99.90;;;;;;5078825;28;20380;-82
2022/03/01 07:09:57;;;;;;;17.25;12.55;;;-0.10;99.90;;;;;;5096064;28;20803;-81
2022/03/01 07:12:23;;;;;;;15.93;11.88;;;0.00;99.90;;;;;;5074010;28;20436;-85
2022/03/01 07:14:48;;;;;;;26.30;12.75;;;0.10;99.90;;;;;;5072805;28;20895;-84
2022/03/01 07:17:16;;;;;;;16.95;12.23;;;0.20;99.90;;;;;;5090798;28;20380;-82
2022/03/01 07:20:08;;;;;;;;;;;;;;;;;;;;;
2022/03/01 07:22:42;;;;;;;14.93;11.25;;;0.50;99.90;;;;;;5092693;28;20415;-82
2022/03/01 07:25:09;;;;;;;14.30;11.70;;;0.60;99.90;;;;;;5073608;28;20416;-81
2022/03/01 07:27:35;;;;;;;16.65;11.80;;;0.70;99.90;;;;;;5069757;28;20456;-83
2022/03/01 07:30:02;;;;;;;15.60;11.60;;;0.90;99.90;;;;;;5090143;28;20475;-82
2022/03/01 07:32:28;;;;;;;14.70;11.43;;;0.90;99.90;;;;;;5089770;28;20373;-82
2022/03/01 07:34:53;;;;;;;16.27;12.02;;;1.10;99.90;;;;;;5090393;28;20380;-84
2022/03/01 07:37:19;;;;;;;15.50;11.77;;;1.20;99.90;;;;;;5071720;28;20373;-82
2022/03/01 07:39:48;;;;;;;14.80;10.88;;;1.30;99.90;;;;;;5093236;28;20396;-82
2022/03/01 07:42:14;;;;;;;16.05;11.95;;;1.40;99.90;;;;;;5074173;28;20498;-82
2022/03/01 07:44:40;;;;;;;19.65;12.52;;;1.50;99.90;;;;;;5089532;28;20475;-83
2022/03/01 07:47:07;;;;;;;15.80;11.82;;;1.50;99.90;;;;;;5089925;28;20368;-82
2022/03/01 07:49:33;;;;;;;22.40;11.60;;;1.70;99.90;;;;;;5089571;28;20400;-84
2022/03/01 07:51:58;;;;;;;19.15;11.82;;;1.80;99.90;;;;;;5071557;28;20905;-81
2022/03/01 07:54:24;;;;;;;15.87;10.73;;;1.90;99.90;;;;;;5091810;28;20392;-83
2022/03/01 07:56:49;;;;;;;15.40;10.80;;;2.00;99.90;;;;;;5073635;28;20397;-81
2022/03/01 07:59:15;;;;;;;18.92;11.23;;;2.10;99.90;;;;;;5090505;28;20395;-84
2022/03/01 08:01:41;;;;;;;15.05;11.48;;;2.20;99.90;;;;;;5071033;28;20373;-84
2022/03/01 08:04:07;;;;;;;14.75;10.73;;;2.40;99.90;;;;;;5071569;28;20410;-84
2022/03/01 08:06:33;;;;;;;16.52;11.80;;;2.50;99.90;;;;;;5070867;28;20384;-81
2022/03/01 08:08:58;;;;;;;13.43;10.23;;;2.50;99.90;;;;;;5089399;28;20433;-87
2022/03/01 08:11:24;;;;;;;16.57;10.53;;;2.60;99.90;;;;;;5090023;28;20384;-84
2022/03/01 08:13:49;;;;;;;15.73;11.03;;;2.70;99.90;;;;;;5088823;28;20862;-88
2022/03/01 08:16:15;;;;;;;13.80;10.67;;;2.80;99.90;;;;;;5090460;28;20364;-87
2022/03/01 08:18:41;;;;;;;11.52;9.80;;;2.90;99.90;;;;;;5072258;28;20434;-86
2022/03/01 08:21:07;;;;;;;63.38;13.85;;;3.00;99.90;;;;;;5089236;28;20376;-84
2022/03/01 08:23:33;;;;;;;12.98;9.80;;;3.20;99.90;;;;;;5072384;28;20416;-86
2022/03/01 08:25:59;;;;;;;11.73;9.53;;;3.20;99.90;;;;;;5072451;28;20464;-87
2022/03/01 08:28:26;;;;;;;13.83;9.90;;;3.30;99.90;;;;;;5090850;28;20488;-86
2022/03/01 08:30:54;;;;;;;13.27;9.40;;;3.40;99.90;;;;;;5073843;28;20388;-82
2022/03/01 08:33:21;;;;;;;12.93;9.70;;;3.50;99.90;;;;;;5078324;28;20384;-86
2022/03/01 08:35:48;;;;;;;11.82;8.80;;;3.60;99.90;;;;;;5074486;28;20376;-84
2022/03/01 08:38:14;;;;;;;12.40;9.15;;;3.60;99.90;;;;;;5075376;28;20389;-83
2022/03/01 08:40:39;;;;;;;13.52;9.68;;;3.60;99.90;;;;;;5075849;28;20399;-85
2022/03/01 08:43:07;;;;;;;14.43;9.45;;;3.60;99.90;;;;;;5071659;28;20444;-86
2022/03/01 08:45:33;;;;;;;26.52;10.35;;;3.80;99.90;;;;;;5072512;28;20380;-85
2022/03/01 08:48:00;;;;;;;12.80;9.67;;;3.80;99.90;;;;;;5072100;28;20518;-82
2022/03/01 08:50:25;;;;;;;11.05;9.25;;;4.00;99.90;;;;;;5073678;28;20384;-84
2022/03/01 08:52:51;;;;;;;12.30;8.35;;;4.00;99.90;;;;;;5092269;28;20738;-87
2022/03/01 08:55:18;;;;;;;12.85;8.70;;;4.00;99.90;;;;;;5091704;28;20436;-84
2022/03/01 08:57:44;;;;;;;12.70;9.00;;;4.10;99.90;;;;;;5093311;28;20388;-89
2022/03/01 09:00:12;;;;;;;15.23;9.05;;;4.20;99.90;;;;;;5076425;28;20383;-87
2022/03/01 09:02:38;;;;;;;11.43;8.20;;;4.30;99.90;;;;;;5077741;28;20404;-82
2022/03/01 09:05:05;;;;;;;10.02;8.38;;;4.40;99.90;;;;;;5077128;28;20394;-84
2022/03/01 09:07:32;;;;;;;11.73;8.93;;;4.50;99.90;;;;;;5095277;28;20376;-84
2022/03/01 09:09:58;;;;;;;11.98;8.77;;;4.70;99.90;;;;;;5075572;28;20434;-90
2022/03/01 09:12:26;;;;;;;10.70;8.60;;;4.80;99.90;;;;;;5094191;28;20420;-84
2022/03/01 09:14:52;;;;;;;12.73;8.43;;;4.90;99.80;;;;;;5094280;28;20410;-85
2022/03/01 09:17:18;;;;;;;12.13;8.63;;;5.00;99.80;;;;;;5095427;28;20382;-84
2022/03/01 09:19:44;;;;;;;16.20;9.00;;;5.00;99.20;;;;;;5074324;28;20387;-82
2022/03/01 09:22:10;;;;;;;11.10;8.65;;;5.00;98.80;;;;;;5076611;28;20769;-85
2022/03/01 09:24:36;;;;;;;10.33;8.13;;;5.10;98.50;;;;;;5076107;28;20906;-85
2022/03/01 09:27:02;;;;;;;11.90;8.37;;;5.10;99.40;;;;;;5094817;28;20465;-84
2022/03/01 09:29:30;;;;;;;12.35;8.13;;;5.10;98.80;;;;;;5076729;28;20788;-84
2022/03/01 09:31:56;;;;;;;12.48;8.25;;;5.20;98.20;;;;;;5075313;28;20419;-82
2022/03/01 09:34:21;;;;;;;10.13;8.02;;;5.30;98.40;;;;;;5075665;28;21429;-89
2022/03/01 09:36:47;;;;;;;10.67;8.00;;;5.30;97.90;;;;;;5092419;28;20925;-87
2022/03/01 09:39:13;;;;;;;10.47;8.03;;;5.20;97.40;;;;;;5093267;28;20372;-84
2022/03/01 09:41:39;;;;;;;13.25;8.75;;;5.40;99.90;;;;;;5093318;28;20438;-84
2022/03/01 09:44:05;;;;;;;11.60;8.37;;;6.20;99.90;;;;;;5096129;28;20427;-83
2022/03/01 09:46:31;;;;;;;9.77;8.10;;;5.50;97.60;;;;;;5098450;28;20381;-83
2022/03/01 09:48:57;;;;;;;10.23;8.02;;;;;;;;;;5080614;28;20414;-87
2022/03/01 09:51:25;;;;;;;10.48;8.13;;;;;;;;;;5075819;28;20718;-83
2022/03/01 09:53:52;;;;;;;11.50;7.75;;;5.90;97.40;;;;;;5096081;28;20380;-83
2022/03/01 09:56:18;;;;;;;11.43;8.07;;;5.90;97.00;;;;;;5075858;28;20392;-86
2022/03/01 09:58:49;;;;;;;10.13;7.43;;;5.90;97.00;;;;;;5091634;28;20442;-85
2022/03/01 10:01:18;;;;;;;11.13;7.72;;;5.90;96.60;;;;;;5093212;28;20418;-88
2022/03/01 10:03:48;;;;;;;12.38;7.90;;;6.00;96.60;;;;;;5073970;28;20814;-84
2022/03/01 10:06:14;;;;;;;10.95;8.20;;;;;;;;;;5090280;28;20918;-83
2022/03/01 10:08:41;;;;;;;8.85;7.38;;;;;;;;;;5091614;28;20384;-86
2022/03/01 10:11:07;;;;;;;11.10;7.55;;;;;;;;;;5092468;28;20444;-85
2022/03/01 10:13:35;;;;;;;9.57;7.53;;;;;;;;;;5073282;28;20468;-92
2022/03/01 10:16:04;;;;;;;10.70;8.07;;;;;;;;;;5095621;28;20866;-86
2022/03/01 10:18:37;;;;;;;10.10;8.02;;;;;;;;;;5074581;28;21016;-87
2022/03/01 10:21:09;;;;;;;9.23;7.18;;;;;;;;;;5073999;28;20385;-88
2022/03/01 10:23:35;;;;;;;11.07;7.47;;;;;;;;;;5074211;28;20761;-86
2022/03/01 10:26:12;;;;;;;11.60;7.93;;;;;;;;;;5075351;28;20388;-83
2022/03/01 10:28:38;;;;;;;9.30;6.82;;;;;;;;;;5075923;28;20382;-86
2022/03/01 10:31:13;;;;;;;9.20;7.20;;;;;;;;;;5092928;28;20372;-89
2022/03/01 10:33:40;;;;;;;9.43;7.82;;;;;;;;;;5075193;28;20403;-86
2022/03/01 10:36:06;;;;;;;11.55;7.82;;;;;;;;;;5075408;28;20381;-86
2022/03/01 10:38:32;;;;;;;13.43;7.57;;;;;;;;;;5075448;28;20700;-86
2022/03/01 10:40:59;;;;;;;10.30;8.05;;;;;;;;;;5092522;28;20385;-83
2022/03/01 10:43:27;;;;;;;9.23;7.67;;;;;;;;;;5076637;28;20458;-83
2022/03/01 10:45:53;;;;;;;10.63;7.95;;;;;;;;;;5093024;28;20446;-84
2022/03/01 10:48:37;;;;;;;11.10;7.32;;;;;;;;;;5092975;28;20711;-85
2022/03/01 10:51:05;;;;;;;8.90;7.65;;;;;;;;;;5091865;28;20447;-86
2022/03/01 10:53:36;;;;;;;10.18;6.93;;;;;;;;;;5059367;28;20393;-87
2022/03/01 10:56:06;;;;;;;10.57;7.90;;;;;;;;;;5091645;28;20389;-84
2022/03/01 10:58:35;;;;;;;8.95;7.32;;;;;;;;;;5092731;28;20766;-87
2022/03/01 11:01:01;;;;;;;9.50;7.63;;;;;;;;;;5072670;28;20387;-87
2022/03/01 11:03:27;;;;;;;9.50;7.57;;;;;;;;;;5074288;28;20408;-86
2022/03/01 11:05:54;;;;;;;9.52;7.10;;;;;;;;;;5066706;28;20382;-84
2022/03/01 11:08:22;;;;;;;9.65;6.97;;;;;;;;;;5076295;28;20372;-84
2022/03/01 11:10:53;;;;;;;12.10;7.38;;;;;;;;;;5057049;28;20390;-84
2022/03/01 11:13:25;;;;;;;10.07;6.93;;;;;;;;;;5081433;28;20379;-84
2022/03/01 11:15:57;;;;;;;9.85;6.60;;;;;;;;;;5091271;28;20379;-84
2022/03/01 11:18:23;;;;;;;9.37;7.03;;;;;;;;;;5091979;28;21228;-85
2022/03/01 11:20:49;;;;;;;11.73;6.97;;;;;;;;;;5090383;28;20387;-87
2022/03/01 11:23:20;;;;;;;10.03;6.87;;;;;;;;;;5091681;28;20400;-83
2022/03/01 11:25:48;;;;;;;7.87;6.50;;;;;;;;;;5068490;28;20901;-83
2022/03/01 11:28:14;;;;;;;9.05;7.25;;;;;;;;;;5072815;28;20384;-90
2022/03/01 11:30:47;;;;;;;8.65;6.53;;;;;;;;;;5073345;28;20372;-86
2022/03/01 11:33:23;;;;;;;9.93;7.13;;;;;;;;;;5074105;28;20380;-83
2022/03/01 11:35:53;;;;;;;8.88;7.30;;;;;;;;;;5092284;28;20450;-84
2022/03/01 11:38:19;;;;;;;9.30;6.78;;;;;;;;;;5074488;28;20380;-85
2022/03/01 11:40:46;;;;;;;9.70;7.07;;;;;;;;;;5072512;28;20396;-87
2022/03/01 11:43:26;;;;;;;9.80;6.72;;;;;;;;;;5076210;28;20403;-87
2022/03/01 11:45:53;;;;;;;7.85;6.43;;;;;;;;;;5090366;28;20365;-87
2022/03/01 11:48:22;;;;;;;15.90;7.88;;;;;;;;;;5092869;28;20403;-83
2022/03/01 11:50:49;;;;;;;11.02;7.40;;;;;;;;;;5073600;28;20414;-86
2022/03/01 11:53:17;;;;;;;9.35;6.57;;;;;;;;;;5075774;28;20393;-83
2022/03/01 11:55:45;;;;;;;10.00;6.43;;;;;;;;;;5073430;28;20454;-88
2022/03/01 11:58:12;;;;;;;9.13;6.60;;;;;;;;;;5092923;28;21146;-85
2022/03/01 12:00:39;;;;;;;8.90;6.93;;;;;;;;;;5074101;28;20396;-85
2022/03/01 12:03:07;;;;;;;9.25;6.53;;;;;;;;;;5073422;28;20407;-86
2022/03/01 12:05:35;;;;;;;7.55;6.55;;;;;;;;;;5092347;28;20372;-87
2022/03/01 12:08:03;;;;;;;9.73;6.68;;;;;;;;;;5072826;28;20438;-84
2022/03/01 12:10:29;;;;;;;8.73;6.20;;;;;;;;;;5073106;28;20375;-83
2022/03/01 12:12:56;;;;;;;12.98;7.40;;;;;;;;;;5090574;28;20368;-85
2022/03/01 12:15:29;;;;;;;8.35;6.25;;;;;;;;;;5073756;28;20499;-87
2022/03/01 12:17:56;;;;;;;8.43;6.18;;;;;;;;;;5076590;28;20928;-84
2022/03/01 12:20:23;;;;;;;8.75;6.75;;;;;;;;;;5080224;28;20452;-82
2022/03/01 12:22:55;;;;;;;10.00;6.97;;;;;;;;;;5099099;28;20430;-83
2022/03/01 12:25:23;;;;;;;7.65;6.30;;;;;;;;;;5080667;28;20365;-84
2022/03/01 12:27:50;;;;;;;9.25;6.43;;;;;;;;;;5097714;28;20760;-84
2022/03/01 12:30:19;;;;;;;7.30;5.85;;;;;;;;;;5098415;28;20365;-85
2022/03/01 12:32:59;;;;;;;7.63;5.73;;;;;;;;;;5082830;28;20376;-83
2022/03/01 12:35:26;;;;;;;6.97;5.67;;;;;;;;;;5083358;28;20389;-84
2022/03/01 12:37:52;;;;;;;7.18;5.60;;;;;;;;;;5083977;28;20739;-86
2022/03/01 12:40:31;;;;;;;7.90;5.70;;;;;;;;;;5083307;28;20734;-86
2022/03/01 12:43:05;;;;;;;6.80;5.57;;;;;;;;;;5082701;28;21195;-83
2022/03/01 12:45:39;;;;;;;6.93;5.47;;;;;;;;;;5101818;28;20451;-84
2022/03/01 12:48:05;;;;;;;7.57;5.30;;;;;;;;;;5083335;28;20786;-84
2022/03/01 12:50:32;;;;;;;7.03;5.85;;;;;;;;;;5083770;28;20377;-87
2022/03/01 12:52:59;;;;;;;6.90;5.57;;;;;;;;;;5102733;28;20372;-83
2022/03/01 12:55:27;;;;;;;7.25;5.90;;;;;;;;;;5107048;28;20368;-82
2022/03/01 12:57:53;;;;;;;7.80;5.82;;;;;;;;;;5082917;28;20403;-84
2022/03/01 13:00:20;;;;;;;7.53;6.10;;;;;;;;;;5097883;28;20894;-83
2022/03/01 13:03:12;;;;;;;8.30;6.30;;;;;;;;;;5102339;28;20747;-83
2022/03/01 13:05:38;;;;;;;6.47;5.45;;;;;;;;;;5082936;28;20379;-82
2022/03/01 13:08:14;;;;;;;8.00;5.95;;;;;;;;;;5081022;28;20369;-87
2022/03/01 13:10:40;;;;;;;7.28;5.72;;;;;;;;;;5081653;28;20790;-84
2022/03/01 13:13:07;;;;;;;7.63;5.90;;;;;;;;;;5098470;28;20427;-88
2022/03/01 13:15:33;;;;;;;6.78;5.50;;;;;;;;;;5080100;28;20414;-83